createdAt,value
2023-01-22T00:00:08.071Z,52.40
2023-01-22T00:02:43.875Z,48.90
2023-01-22T00:05:10.890Z,56.30
2023-01-22T00:07:38.137Z,55.90
2023-01-22T00:10:05.675Z,51.70
2023-01-22T00:12:32.651Z,51.60
2023-01-22T00:14:59.600Z,47.30
2023-01-22T00:17:26.554Z,53.80
2023-01-22T00:19:53.510Z,50.60
2023-01-22T00:22:20.563Z,46.80
2023-01-22T00:24:47.609Z,49.30
2023-01-22T00:27:14.543Z,50.50
2023-01-22T00:29:41.507Z,50.80
2023-01-22T00:32:08.581Z,50.60
2023-01-22T00:34:35.718Z,48.10
2023-01-22T00:37:02.627Z,49.90
2023-01-22T00:39:29.625Z,52.30
2023-01-22T00:41:56.581Z,49.90
2023-01-22T00:44:23.829Z,43.50
2023-01-22T00:46:53.001Z,49.40
2023-01-22T00:49:20.393Z,44.50
2023-01-22T00:51:47.276Z,46.10
2023-01-22T00:54:14.397Z,42.90
2023-01-22T00:56:41.316Z,46.70
2023-01-22T00:59:10.844Z,42.80
2023-01-22T01:01:38.813Z,47.00
2023-01-22T01:04:06.226Z,43.50
2023-01-22T01:06:33.121Z,44.00
2023-01-22T01:09:00.126Z,41.60
2023-01-22T01:11:27.734Z,45.80
2023-01-22T01:13:55.941Z,45.20
2023-01-22T01:16:29.853Z,43.90
2023-01-22T01:19:04.990Z,43.00
2023-01-22T01:23:59.113Z,45.00
2023-01-22T01:26:26.153Z,47.20
2023-01-22T01:28:53.199Z,44.10
2023-01-22T01:31:21.278Z,45.50
2023-01-22T01:33:49.354Z,41.60
2023-01-22T01:36:35.253Z,46.20
2023-01-22T01:39:08.023Z,40.30
2023-01-22T01:41:34.967Z,42.30
2023-01-22T01:44:11.439Z,42.20
2023-01-22T01:46:52.315Z,46.60
2023-01-22T01:49:31.020Z,45.90
2023-01-22T01:52:03.994Z,40.30
2023-01-22T01:54:31.584Z,43.30
2023-01-22T01:57:08.372Z,40.00
2023-01-22T01:59:35.517Z,44.70
2023-01-22T02:02:03.053Z,38.10
2023-01-22T02:04:30.029Z,44.00
2023-01-22T02:06:56.975Z,38.50
2023-01-22T02:09:23.912Z,36.80
2023-01-22T02:11:51.331Z,36.90
2023-01-22T02:14:20.794Z,36.40
2023-01-22T02:16:47.847Z,37.30
2023-01-22T02:19:15.620Z,38.20
2023-01-22T02:21:43.660Z,43.60
2023-01-22T02:24:12.488Z,39.50
2023-01-22T02:26:40.257Z,39.40
2023-01-22T02:29:08.969Z,38.30
2023-01-22T02:31:36.968Z,43.90
2023-01-22T02:34:04.043Z,41.00
2023-01-22T02:36:31.614Z,39.30
2023-01-22T02:38:58.565Z,42.40
2023-01-22T02:41:26.062Z,40.30
2023-01-22T02:43:53.110Z,38.20
2023-01-22T02:46:21.415Z,44.20
2023-01-22T02:48:48.353Z,44.70
2023-01-22T02:51:15.644Z,41.40
2023-01-22T02:53:44.217Z,39.60
2023-01-22T02:56:11.465Z,45.90
2023-01-22T02:58:38.957Z,42.80
2023-01-22T03:01:23.249Z,42.40
2023-01-22T03:03:53.972Z,46.10
2023-01-22T03:06:22.120Z,38.40
2023-01-22T03:08:53.224Z,43.00
2023-01-22T03:11:20.202Z,40.40
2023-01-22T03:14:07.626Z,41.30
2023-01-22T03:16:53.576Z,43.10
2023-01-22T03:19:39.580Z,46.30
2023-01-22T03:22:11.532Z,47.30
2023-01-22T03:24:38.576Z,47.50
2023-01-22T03:27:05.519Z,50.10
2023-01-22T03:29:32.788Z,45.00
2023-01-22T03:32:00.604Z,47.40
2023-01-22T03:34:27.610Z,43.90
2023-01-22T03:36:55.114Z,53.80
2023-01-22T03:39:22.228Z,46.30
2023-01-22T03:41:49.280Z,51.80
2023-01-22T03:44:16.542Z,43.20
2023-01-22T03:46:43.489Z,42.70
2023-01-22T03:49:12.709Z,42.60
2023-01-22T03:51:40.729Z,41.10
2023-01-22T03:54:07.672Z,42.60
2023-01-22T03:56:35.626Z,36.20
2023-01-22T03:59:06.641Z,36.20
2023-01-22T04:01:34.014Z,32.20
2023-01-22T04:04:01.076Z,32.30
2023-01-22T04:06:28.312Z,34.80
2023-01-22T04:08:55.442Z,34.50
2023-01-22T04:11:28.052Z,30.40
2023-01-22T04:13:55.160Z,34.50
2023-01-22T04:16:22.405Z,30.00
2023-01-22T04:19:04.863Z,30.20
2023-01-22T04:21:45.120Z,27.90
2023-01-22T04:24:14.015Z,29.20
2023-01-22T04:26:41.265Z,26.60
2023-01-22T04:29:09.467Z,25.70
2023-01-22T04:31:36.808Z,21.80
2023-01-22T04:34:18.853Z,23.80
2023-01-22T04:36:51.375Z,21.70
2023-01-22T04:39:18.441Z,30.10
2023-01-22T04:41:45.489Z,26.90
2023-01-22T04:44:12.433Z,25.70
2023-01-22T04:46:41.028Z,25.20
2023-01-22T04:49:08.075Z,29.10
2023-01-22T04:51:35.540Z,25.10
2023-01-22T04:54:02.463Z,26.20
2023-01-22T04:56:29.447Z,22.80
2023-01-22T04:58:56.504Z,24.80
2023-01-22T05:01:23.460Z,24.10
2023-01-22T05:03:50.703Z,24.00
2023-01-22T05:06:17.614Z,21.00
2023-01-22T05:08:44.729Z,21.60
2023-01-22T05:11:11.764Z,22.10
2023-01-22T05:13:45.815Z,25.20
2023-01-22T05:16:13.136Z,21.60
2023-01-22T05:18:40.191Z,23.20
2023-01-22T05:21:07.240Z,20.80
2023-01-22T05:23:36.344Z,22.40
2023-01-22T05:26:03.399Z,21.90
2023-01-22T05:28:51.889Z,20.20
2023-01-22T05:31:48.064Z,21.00
2023-01-22T05:34:29.237Z,17.30
2023-01-22T05:36:56.496Z,22.50
2023-01-22T05:39:25.117Z,21.00
2023-01-22T05:41:53.767Z,22.20
2023-01-22T05:44:20.664Z,22.40
2023-01-22T05:46:51.703Z,21.30
2023-01-22T05:49:45.670Z,18.10
2023-01-22T05:52:15.002Z,22.40
2023-01-22T05:54:42.010Z,20.00
2023-01-22T05:57:08.938Z,18.80
2023-01-22T05:59:38.143Z,17.70
2023-01-22T06:02:06.526Z,17.70
2023-01-22T06:04:35.221Z,20.80
2023-01-22T06:07:05.335Z,19.80
2023-01-22T06:09:32.392Z,22.10
2023-01-22T06:11:59.492Z,20.10
2023-01-22T06:14:26.376Z,22.10
2023-01-22T06:16:55.458Z,20.60
2023-01-22T06:19:30.439Z,23.30
2023-01-22T06:21:57.990Z,23.30
2023-01-22T06:24:33.788Z,23.40
2023-01-22T06:27:01.830Z,23.40
2023-01-22T06:29:36.757Z,19.20
2023-01-22T06:32:05.616Z,21.90
2023-01-22T06:34:32.457Z,21.00
2023-01-22T06:36:59.734Z,21.60
2023-01-22T06:39:28.549Z,26.90
2023-01-22T06:42:03.484Z,26.60
2023-01-22T06:44:30.533Z,21.80
2023-01-22T06:46:57.716Z,23.90
2023-01-22T06:49:26.539Z,22.60
2023-01-22T06:51:54.978Z,24.00
2023-01-22T06:54:23.157Z,23.20
2023-01-22T06:56:50.001Z,24.30
2023-01-22T06:59:17.052Z,23.10
2023-01-22T07:01:44.028Z,27.70
2023-01-22T07:04:11.095Z,27.00
2023-01-22T07:06:38.115Z,26.70
2023-01-22T07:09:05.063Z,25.20
2023-01-22T07:11:32.114Z,25.20
2023-01-22T07:13:59.068Z,27.40
2023-01-22T07:16:26.054Z,26.70
2023-01-22T07:18:53.085Z,25.70
2023-01-22T07:21:20.032Z,26.60
2023-01-22T07:23:46.911Z,26.30
2023-01-22T07:26:14.666Z,31.10
2023-01-22T07:28:41.540Z,32.60
2023-01-22T07:31:12.244Z,28.60
2023-01-22T07:33:39.371Z,26.90
2023-01-22T07:36:07.017Z,31.10
2023-01-22T07:38:33.894Z,30.00
2023-01-22T07:41:13.958Z,31.10
2023-01-22T07:43:49.354Z,33.10
2023-01-22T07:46:16.698Z,30.50
2023-01-22T07:48:45.724Z,29.40
2023-01-22T07:51:12.939Z,35.50
2023-01-22T07:53:40.337Z,47.90
2023-01-22T07:56:07.685Z,43.90
2023-01-22T07:58:34.828Z,50.50
2023-01-22T08:01:06.159Z,50.10
2023-01-22T08:03:34.296Z,48.60
2023-01-22T08:06:01.812Z,54.70
2023-01-22T08:08:28.830Z,48.30
2023-01-22T08:10:58.555Z,46.40
2023-01-22T08:13:25.428Z,58.10
2023-01-22T08:15:52.338Z,50.70
2023-01-22T08:18:20.871Z,52.60
2023-01-22T08:20:49.213Z,60.30
2023-01-22T08:23:16.077Z,57.80
2023-01-22T08:25:43.008Z,51.20
2023-01-22T08:28:10.067Z,49.00
2023-01-22T08:30:45.514Z,45.80
2023-01-22T08:33:13.385Z,42.60
2023-01-22T08:35:40.250Z,39.80
2023-01-22T08:38:07.203Z,43.00
2023-01-22T08:40:34.094Z,41.80
2023-01-22T08:43:00.941Z,42.80
2023-01-22T08:45:27.978Z,48.60
2023-01-22T08:47:59.932Z,52.50
2023-01-22T08:50:27.919Z,52.60
2023-01-22T08:52:57.472Z,57.50
2023-01-22T08:55:25.052Z,63.10
2023-01-22T08:57:54.145Z,59.70
2023-01-22T09:00:22.122Z,57.90
2023-01-22T09:02:49.102Z,51.80
2023-01-22T09:05:16.328Z,55.20
2023-01-22T09:07:43.587Z,58.00
2023-01-22T09:10:13.090Z,55.80
2023-01-22T09:12:40.379Z,52.80
2023-01-22T09:15:08.128Z,68.60
2023-01-22T09:17:35.181Z,60.70
2023-01-22T09:20:02.249Z,56.20
2023-01-22T09:22:29.198Z,59.20
2023-01-22T09:24:56.238Z,54.00
2023-01-22T09:27:23.283Z,50.60
2023-01-22T09:29:50.241Z,47.10
2023-01-22T09:32:17.181Z,45.70
2023-01-22T09:34:44.086Z,46.20
2023-01-22T09:37:11.911Z,43.10
2023-01-22T09:39:38.960Z,43.10
2023-01-22T09:42:05.925Z,42.80
2023-01-22T09:44:41.420Z,45.80
2023-01-22T09:47:15.259Z,47.70
2023-01-22T09:49:57.582Z,32.20
2023-01-22T09:52:26.946Z,42.20
2023-01-22T09:54:54.080Z,37.90
2023-01-22T09:57:31.293Z,38.40
2023-01-22T09:59:59.267Z,36.00
2023-01-22T10:02:45.493Z,41.50
2023-01-22T10:05:19.589Z,45.70
2023-01-22T10:07:53.099Z,50.80
2023-01-22T10:10:21.403Z,48.90
2023-01-22T10:12:55.929Z,45.70
2023-01-22T10:15:23.612Z,43.70
2023-01-22T10:17:50.935Z,53.20
2023-01-22T10:20:19.248Z,53.80
2023-01-22T10:22:49.061Z,52.30
2023-01-22T10:25:17.582Z,50.90
2023-01-22T10:27:44.937Z,50.20
2023-01-22T10:30:23.804Z,50.00
2023-01-22T10:33:05.428Z,50.70
2023-01-22T10:35:32.801Z,54.30
2023-01-22T10:38:00.124Z,55.40
2023-01-22T10:40:38.185Z,55.70
2023-01-22T10:43:12.457Z,52.20
2023-01-22T10:45:40.211Z,51.90
2023-01-22T10:48:15.049Z,48.70
2023-01-22T10:50:42.490Z,49.70
2023-01-22T10:53:20.799Z,39.60
2023-01-22T10:55:53.254Z,37.70
2023-01-22T10:58:21.486Z,37.00
2023-01-22T11:01:03.513Z,37.80
2023-01-22T11:03:35.271Z,30.60
2023-01-22T11:06:11.634Z,32.80
2023-01-22T11:08:45.726Z,32.90
2023-01-22T11:11:14.734Z,31.80
2023-01-22T11:13:51.227Z,34.20
2023-01-22T11:16:20.382Z,29.80
2023-01-22T11:18:58.301Z,33.50
2023-01-22T11:21:50.821Z,34.20
2023-01-22T11:24:27.854Z,34.40
2023-01-22T11:27:14.704Z,36.30
2023-01-22T11:30:07.479Z,29.40
2023-01-22T11:33:04.508Z,27.70
2023-01-22T11:35:36.670Z,26.80
2023-01-22T11:38:42.736Z,29.60
2023-01-22T11:41:13.716Z,35.60
2023-01-22T11:44:07.739Z,34.70
2023-01-22T11:46:50.066Z,30.70
2023-01-22T11:49:48.340Z,30.70
2023-01-22T11:52:33.757Z,23.10
2023-01-22T11:55:24.303Z,20.60
2023-01-22T11:57:59.375Z,27.50
2023-01-22T12:00:38.571Z,32.60
2023-01-22T12:03:27.476Z,39.10
2023-01-22T12:06:03.209Z,37.30
2023-01-22T12:08:53.267Z,25.10
2023-01-22T12:11:55.849Z,22.40
2023-01-22T12:14:31.967Z,19.70
2023-01-22T12:17:26.692Z,25.90
2023-01-22T12:20:25.087Z,16.30
2023-01-22T12:22:55.189Z,25.00
2023-01-22T12:25:40.429Z,17.40
2023-01-22T12:28:26.135Z,17.30
2023-01-22T12:31:03.885Z,15.40
2023-01-22T12:33:32.559Z,19.10
2023-01-22T12:36:01.558Z,18.20
2023-01-22T12:38:50.294Z,16.40
2023-01-22T12:41:36.279Z,18.00
2023-01-22T12:44:50.177Z,18.40
2023-01-22T12:47:21.975Z,15.70
2023-01-22T12:49:50.599Z,17.50
2023-01-22T12:52:49.759Z,20.60
2023-01-22T12:55:38.299Z,17.60
2023-01-22T12:58:05.270Z,17.00
2023-01-22T13:00:36.853Z,20.20
2023-01-22T13:03:33.169Z,17.90
2023-01-22T13:06:01.900Z,22.40
2023-01-22T13:08:38.172Z,18.20
2023-01-22T13:11:27.378Z,16.90
2023-01-22T13:14:00.665Z,16.20
2023-01-22T13:16:37.769Z,16.40
2023-01-22T13:19:17.645Z,16.70
2023-01-22T13:21:44.494Z,20.60
2023-01-22T13:24:17.142Z,23.90
2023-01-22T13:26:51.841Z,21.90
2023-01-22T13:31:57.310Z,22.00
2023-01-22T13:34:24.812Z,25.90
2023-01-22T13:36:51.905Z,22.80
2023-01-22T13:39:32.413Z,23.40
2023-01-22T13:42:05.123Z,27.70
2023-01-22T13:44:36.662Z,28.40
2023-01-22T13:47:03.733Z,33.90
2023-01-22T13:49:41.824Z,30.20
2023-01-22T13:52:16.887Z,33.50
2023-01-22T13:54:46.167Z,28.00
2023-01-22T13:57:21.401Z,30.20
2023-01-22T13:59:58.787Z,31.00
2023-01-22T14:02:30.747Z,32.50
2023-01-22T14:04:57.719Z,35.50
2023-01-22T14:07:32.088Z,30.20
2023-01-22T14:10:14.672Z,32.20
2023-01-22T14:12:41.573Z,30.80
2023-01-22T14:15:19.732Z,27.30
2023-01-22T14:17:47.983Z,24.80
2023-01-22T14:20:16.214Z,19.90
2023-01-22T14:22:43.141Z,21.10
2023-01-22T14:25:10.207Z,21.70
2023-01-22T14:28:03.632Z,19.10
2023-01-22T14:30:30.580Z,19.90
2023-01-22T14:32:57.500Z,20.20
2023-01-22T14:35:26.595Z,17.20
2023-01-22T14:37:53.804Z,17.00
2023-01-22T14:40:22.195Z,17.90
2023-01-22T14:42:49.229Z,20.20
2023-01-22T14:45:17.025Z,18.70
2023-01-22T14:47:44.098Z,17.50
2023-01-22T14:50:12.101Z,19.20
2023-01-22T14:52:39.036Z,18.20
2023-01-22T14:55:06.601Z,18.00
2023-01-22T14:57:33.559Z,17.60
2023-01-22T15:00:01.968Z,20.70
2023-01-22T15:02:29.032Z,21.70
2023-01-22T15:04:55.984Z,22.20
2023-01-22T15:07:22.873Z,20.80
2023-01-22T15:09:49.836Z,22.50
2023-01-22T15:12:17.129Z,25.70
2023-01-22T15:14:44.190Z,22.60
2023-01-22T15:17:11.055Z,25.10
2023-01-22T15:19:41.457Z,30.00
2023-01-22T15:22:09.272Z,22.30
2023-01-22T15:24:36.317Z,28.80
2023-01-22T15:27:03.388Z,29.70
2023-01-22T15:29:30.303Z,23.70
2023-01-22T15:31:57.463Z,25.00
2023-01-22T15:34:24.552Z,28.20
2023-01-22T15:36:51.434Z,28.10
2023-01-22T15:39:18.462Z,25.80
2023-01-22T15:41:45.673Z,27.50
2023-01-22T15:44:13.908Z,31.80
2023-01-22T15:46:42.889Z,33.40
2023-01-22T15:49:10.583Z,32.40
2023-01-22T15:51:37.567Z,33.70
2023-01-22T15:54:05.688Z,34.20
2023-01-22T15:56:36.914Z,32.30
2023-01-22T15:59:04.503Z,33.50
2023-01-22T16:01:31.436Z,39.20
2023-01-22T16:03:58.506Z,36.60
2023-01-22T16:06:26.531Z,30.70
2023-01-22T16:08:54.968Z,33.10
2023-01-22T16:11:22.124Z,36.50
2023-01-22T16:13:49.077Z,34.30
2023-01-22T16:16:32.243Z,37.90
2023-01-22T16:19:00.262Z,33.80
2023-01-22T16:21:27.321Z,34.20
2023-01-22T16:23:56.591Z,30.70
2023-01-22T16:26:27.977Z,32.70
2023-01-22T16:28:55.853Z,35.10
2023-01-22T16:31:27.791Z,31.60
2023-01-22T16:33:57.771Z,34.10
2023-01-22T16:36:26.430Z,33.20
2023-01-22T16:38:53.484Z,31.80
2023-01-22T16:41:30.558Z,33.60
2023-01-22T16:44:09.183Z,38.00
2023-01-22T16:46:41.451Z,26.20
2023-01-22T16:49:19.710Z,30.00
2023-01-22T16:51:53.976Z,30.80
2023-01-22T16:54:28.061Z,29.70
2023-01-22T16:56:59.406Z,31.10
2023-01-22T16:59:29.673Z,30.30
2023-01-22T17:01:57.641Z,23.90
2023-01-22T17:04:24.694Z,26.10
2023-01-22T17:06:53.501Z,29.50
2023-01-22T17:09:33.484Z,29.70
2023-01-22T17:12:04.289Z,32.20
2023-01-22T17:14:32.205Z,31.90
2023-01-22T17:16:59.416Z,32.40
2023-01-22T17:19:26.460Z,33.90
2023-01-22T17:21:55.407Z,32.90
2023-01-22T17:24:22.592Z,32.60
2023-01-22T17:26:50.484Z,28.00
2023-01-22T17:29:17.791Z,30.10
2023-01-22T17:31:45.105Z,34.10
2023-01-22T17:34:12.141Z,33.40
2023-01-22T17:36:39.719Z,33.90
2023-01-22T17:39:07.085Z,34.30
2023-01-22T17:41:34.036Z,34.60
2023-01-22T17:44:01.084Z,28.00
2023-01-22T17:46:30.950Z,34.80
2023-01-22T17:48:58.518Z,26.60
2023-01-22T17:51:27.170Z,32.90
2023-01-22T17:53:55.158Z,30.00
2023-01-22T17:56:27.080Z,30.60
2023-01-22T17:58:55.939Z,29.10
2023-01-22T18:01:24.078Z,30.80
2023-01-22T18:03:51.262Z,34.50
2023-01-22T18:06:18.590Z,29.60
2023-01-22T18:08:45.634Z,31.00
2023-01-22T18:11:14.939Z,26.10
2023-01-22T18:13:42.200Z,25.40
2023-01-22T18:16:12.100Z,23.90
2023-01-22T18:18:39.476Z,22.10
2023-01-22T18:21:07.257Z,22.70
2023-01-22T18:23:34.404Z,24.00
2023-01-22T18:26:04.299Z,23.90
2023-01-22T18:28:31.506Z,25.40
2023-01-22T18:31:11.788Z,24.10
2023-01-22T18:33:38.936Z,26.20
2023-01-22T18:36:08.785Z,22.50
2023-01-22T18:38:37.131Z,25.60
2023-01-22T18:41:05.713Z,25.70
2023-01-22T18:43:32.682Z,24.90
2023-01-22T18:46:06.406Z,25.20
2023-01-22T18:48:33.497Z,18.10
2023-01-22T18:51:00.554Z,22.80
2023-01-22T18:53:27.691Z,20.20
2023-01-22T18:55:59.082Z,26.20
2023-01-22T18:58:34.328Z,27.90
2023-01-22T19:01:21.982Z,21.40
2023-01-22T19:03:52.168Z,26.70
2023-01-22T19:06:21.141Z,25.70
2023-01-22T19:08:58.524Z,23.70
2023-01-22T19:11:25.745Z,25.30
2023-01-22T19:13:53.756Z,28.90
2023-01-22T19:16:21.419Z,26.40
2023-01-22T19:18:49.029Z,23.20
2023-01-22T19:21:17.732Z,24.60
2023-01-22T19:23:49.532Z,31.90
2023-01-22T19:26:27.629Z,24.00
2023-01-22T19:28:56.239Z,21.50
2023-01-22T19:31:30.467Z,23.20
2023-01-22T19:33:59.356Z,26.50
2023-01-22T19:36:28.455Z,22.80
2023-01-22T19:38:56.256Z,23.70
2023-01-22T19:41:24.039Z,25.10
2023-01-22T19:43:55.025Z,25.80
2023-01-22T19:46:26.278Z,24.30
2023-01-22T19:48:53.889Z,28.20
2023-01-22T19:51:22.465Z,19.70
2023-01-22T19:53:49.493Z,22.80
2023-01-22T19:56:21.169Z,29.90
2023-01-22T19:58:48.980Z,28.80
2023-01-22T20:01:16.217Z,24.60
2023-01-22T20:03:43.161Z,24.10
2023-01-22T20:06:11.062Z,27.70
2023-01-22T20:08:39.045Z,26.50
2023-01-22T20:11:07.460Z,29.70
2023-01-22T20:13:34.538Z,36.40
2023-01-22T20:16:01.493Z,30.80
2023-01-22T20:18:28.930Z,27.40
2023-01-22T20:20:56.510Z,26.50
2023-01-22T20:23:23.958Z,26.90
2023-01-22T20:25:51.113Z,26.80
2023-01-22T20:28:18.385Z,34.30
2023-01-22T20:30:45.852Z,27.00
2023-01-22T20:33:12.888Z,25.90
2023-01-22T20:35:42.993Z,26.40
2023-01-22T20:38:09.872Z,22.80
2023-01-22T20:40:39.180Z,28.20
2023-01-22T20:43:06.120Z,33.00
2023-01-22T20:45:33.119Z,23.90
2023-01-22T20:48:00.126Z,26.50
2023-01-22T20:50:27.169Z,27.70
2023-01-22T20:52:54.090Z,27.50
2023-01-22T20:55:21.199Z,26.50
2023-01-22T20:57:48.126Z,23.90
2023-01-22T21:00:15.693Z,21.70
2023-01-22T21:02:42.641Z,18.50
2023-01-22T21:05:09.561Z,23.40
2023-01-22T21:07:36.458Z,22.00
2023-01-22T21:10:03.802Z,22.30
2023-01-22T21:12:30.750Z,24.70
2023-01-22T21:14:57.716Z,26.60
2023-01-22T21:17:24.656Z,23.60
2023-01-22T21:19:52.682Z,27.20
2023-01-22T21:22:19.684Z,28.40
2023-01-22T21:24:46.635Z,26.40
2023-01-22T21:27:13.583Z,22.70
2023-01-22T21:29:40.432Z,27.80
2023-01-22T21:32:07.270Z,25.80
2023-01-22T21:34:36.409Z,27.40
2023-01-22T21:37:03.357Z,19.70
2023-01-22T21:39:30.392Z,23.50
2023-01-22T21:42:16.087Z,21.60
2023-01-22T21:45:02.866Z,20.50
2023-01-22T21:47:30.125Z,15.60
2023-01-22T21:49:57.045Z,18.90
2023-01-22T21:52:23.949Z,20.50
2023-01-22T21:54:50.975Z,26.20
2023-01-22T21:57:17.890Z,21.80
2023-01-22T21:59:46.727Z,21.20
2023-01-22T22:02:15.387Z,22.10
2023-01-22T22:04:42.363Z,22.50
2023-01-22T22:07:09.312Z,21.30
2023-01-22T22:09:36.167Z,25.70
2023-01-22T22:12:03.431Z,27.30
2023-01-22T22:14:30.474Z,24.30
2023-01-22T22:17:00.013Z,24.10
2023-01-22T22:19:30.309Z,22.80
2023-01-22T22:21:57.278Z,28.30
2023-01-22T22:24:24.177Z,23.70
2023-01-22T22:26:51.172Z,21.30
2023-01-22T22:29:18.113Z,24.40
2023-01-22T22:31:45.039Z,23.30
2023-01-22T22:34:11.990Z,22.00
2023-01-22T22:36:38.896Z,23.40
2023-01-22T22:39:06.829Z,24.30
2023-01-22T22:41:34.812Z,24.50
2023-01-22T22:44:01.693Z,19.10
2023-01-22T22:46:33.437Z,23.40
2023-01-22T22:49:01.024Z,22.20
2023-01-22T22:51:35.903Z,22.60
2023-01-22T22:54:05.014Z,17.60
2023-01-22T22:56:32.187Z,20.30
2023-01-22T22:59:00.993Z,19.00
2023-01-22T23:01:28.375Z,25.10
2023-01-22T23:03:55.487Z,19.30
2023-01-22T23:06:25.497Z,25.80
2023-01-22T23:09:08.321Z,18.60
2023-01-22T23:11:35.208Z,25.40
2023-01-22T23:14:02.900Z,22.80
2023-01-22T23:16:35.057Z,24.10
2023-01-22T23:19:04.646Z,25.50
2023-01-22T23:21:35.103Z,23.60
2023-01-22T23:24:02.628Z,23.20
2023-01-22T23:26:30.157Z,20.90
2023-01-22T23:28:58.968Z,24.70
2023-01-22T23:31:26.781Z,22.30
2023-01-22T23:33:54.915Z,23.20
2023-01-22T23:36:22.276Z,22.10
2023-01-22T23:38:49.430Z,24.80
2023-01-22T23:41:17.304Z,23.50
2023-01-22T23:43:44.468Z,24.20
2023-01-22T23:46:16.043Z,17.40
2023-01-22T23:48:43.279Z,18.40
2023-01-22T23:51:10.882Z,20.80
2023-01-22T23:53:40.095Z,23.30
2023-01-22T23:56:07.615Z,17.80
2023-01-22T23:58:34.554Z,18.90
